Flight Track Log - Related Links

Times and Time Zones

All times are in EDT time to prevent confusion due to time zone crossing. See the SKQ45 flight status page for this flight to view local times or setup timezone preferences in your user account.

Time Position Orientation Groundspeed Altitude Reporting Facility
EDT Latitude Longitude Course Direction KTS MPH feet Rate Location/Type
Wed 12:35:03 AM 38.7472 -90.2211 41° Northeast 151 174 2,900  Level FAA TRACON SMA TRACON (SMA)
Wed 12:35:27 AM 38.7494 -90.2031 81° East 163 188 3,200 1,535 Climbing FAA TRACON SMA TRACON (SMA)
Wed 12:35:46 AM 38.7542 -90.1811 75° East 168 193 4,000 2,167 Climbing FAA TRACON SMA TRACON (SMA)
Wed 12:36:03 AM 38.7586 -90.1639 72° East 167 192 4,500 1,459 Climbing FAA TRACON SMA TRACON (SMA)
Wed 12:36:23 AM 38.7636 -90.1461 70° East 170 196 4,900 1,500 Climbing FAA TRACON SMA TRACON (SMA)
Wed 12:36:43 AM 38.7689 -90.1225 74° East 178 205 5,500 1,650 Climbing FAA TRACON SMA TRACON (SMA)
Wed 12:37:03 AM 38.7728 -90.1039 75° East 179 206 6,000 1,500 Climbing FAA TRACON SMA TRACON (SMA)
Wed 12:37:23 AM 38.7769 -90.0847 74° East 179 206 6,500 1,500 Climbing FAA TRACON SMA TRACON (SMA)
Wed 12:37:43 AM 38.7817 -90.0611 76° East 179 206 7,000 1,500 Climbing FAA TRACON SMA TRACON (SMA)
Wed 12:38:03 AM 38.7861 -90.0419 73° East 180 207 7,500 1,500 Climbing FAA TRACON SMA TRACON (SMA)
Wed 12:38:23 AM 38.7900 -90.0231 75° East 181 208 8,000 1,650 Climbing FAA TRACON SMA TRACON (SMA)
Wed 12:38:43 AM 38.7956 -89.9992 73° East 181 208 8,600 1,800 Climbing FAA TRACON SMA TRACON (SMA)
Wed 12:39:03 AM 38.8000 -89.9800 73° East 183 211 9,200 1,500 Climbing FAA TRACON SMA TRACON (SMA)
Wed 12:39:23 AM 38.8042 -89.9608 74° East 183 211 9,600 1,500 Climbing FAA TRACON SMA TRACON (SMA)
Wed 12:39:43 AM 38.8092 -89.9361 75° East 184 212 10,200 1,350 Climbing FAA TRACON SMA TRACON (SMA)
Wed 12:40:00 AM 39.0574 -90.0064 41° Northeast  Level FlightAware Approximate
Wed 12:40:03 AM 38.8139 -89.9167 73° East 186 214 10,500  Level FAA TRACON SMA TRACON (SMA)
Wed 12:40:23 AM 38.8186 -89.8953 74° East 197 227 10,700 900 Climbing FAA TRACON SMA TRACON (SMA)
Wed 12:40:43 AM 38.8244 -89.8675 75° East 211 243 11,100 900 Climbing FAA TRACON SMA TRACON (SMA)
Wed 12:41:03 AM 38.8292 -89.8442 75° East 218 251 11,300 732 Climbing FAA TRACON SMA TRACON (SMA)
Wed 12:41:24 AM 38.8342 -89.8208 75° East 221 254 11,600 1,050 Climbing FAA TRACON SMA TRACON (SMA)
Wed 12:41:43 AM 38.8408 -89.7914 74° East 223 257 12,000 1,077 Climbing FAA TRACON SMA TRACON (SMA)
Wed 12:42:03 AM 38.8464 -89.7678 73° East 225 259 12,300 1,171 Climbing FAA TRACON SMA TRACON (SMA)
Wed 12:42:24 AM 38.8514 -89.7442 75° East 223 257 12,800 1,350 Climbing FAA TRACON SMA TRACON (SMA)
Wed 12:42:43 AM 38.8572 -89.7153 75° East 218 251 13,200 1,231 Climbing FAA TRACON SMA TRACON (SMA)
Wed 12:43:03 AM 38.8631 -89.6928 72° East 217 250 13,600 1,171 Climbing FAA TRACON SMA TRACON (SMA)
Wed 12:43:24 AM 38.8681 -89.6697 74° East 219 252 14,000 1,050 Climbing FAA TRACON SMA TRACON (SMA)
Wed 12:43:43 AM 38.8744 -89.6406 74° East 219 252 14,300 1,077 Climbing FAA TRACON SMA TRACON (SMA)
Wed 12:44:03 AM 38.8789 -89.6169 76° East 223 257 14,700 1,024 Climbing FAA TRACON SMA TRACON (SMA)
Wed 12:44:24 AM 38.8842 -89.5936 74° East 222 255 15,000 1,050 Climbing FAA TRACON SMA TRACON (SMA)
Wed 12:44:43 AM 38.8908 -89.5642 74° East 223 257 15,400 1,077 Climbing FAA TRACON SMA TRACON (SMA)
Wed 12:45:03 AM 38.8961 -89.5403 74° East 225 259 15,700 878 Climbing FAA TRACON SMA TRACON (SMA)
Wed 12:45:24 AM 38.9008 -89.5158 76° East 227 261 16,000 837 Climbing FAA TRACON SMA TRACON (SMA)
Wed 12:45:46 AM 38.9086 -89.4864 71° East 229 264 16,300 1,000 Climbing FAA TRACON SMA TRACON (SMA)
Wed 12:46:06 AM 38.9156 -89.4561 74° East 229 264 16,700 973 Climbing FAA TRACON SMA TRACON (SMA)
Wed 12:46:23 AM 38.9181 -89.4375 80° East 228 262 16,900 811 Climbing FAA TRACON SMA TRACON (SMA)
Wed 12:46:43 AM 38.9253 -89.4075 73° East 229 264 17,200 900 Climbing FAA TRACON SMA TRACON (SMA)
Wed 12:47:03 AM 38.9297 -89.3831 77° East 229 264 17,500 750 Climbing FAA TRACON SMA TRACON (SMA)
Wed 12:47:23 AM 38.9356 -89.3594 72° East 226 260 17,700 600 Climbing FAA TRACON SMA TRACON (SMA)
Wed 12:47:43 AM 38.9428 -89.3292 73° East 229 264 17,900 600 Climbing FAA TRACON SMA TRACON (SMA)
Wed 12:48:03 AM 38.9475 -89.3053 76° East 229 264 18,100 750 Climbing FAA TRACON SMA TRACON (SMA)
Wed 12:48:23 AM 38.9522 -89.2806 76° East 231 266 18,400 750 Climbing FAA TRACON SMA TRACON (SMA)
Wed 12:48:43 AM 38.9597 -89.2500 72° East 231 266 18,600 750 Climbing FAA TRACON SMA TRACON (SMA)
Wed 12:49:03 AM 38.9644 -89.2253 76° East 234 269 18,900 750 Climbing FAA TRACON SMA TRACON (SMA)
Wed 12:49:23 AM 38.9711 -89.2003 71° East 237 273 19,100 900 Climbing FAA TRACON SMA TRACON (SMA)
Wed 12:49:43 AM 38.9756 -89.1689 80° East 235 270 19,500 900 Climbing FAA TRACON SMA TRACON (SMA)
Wed 12:50:03 AM 38.9836 -89.1444 67° East 238 274 19,700 600 Climbing FAA TRACON SMA TRACON (SMA)
Wed 12:50:23 AM 38.9886 -89.1189 76° East 240 276 19,900 450 Climbing FAA TRACON SMA TRACON (SMA)
Wed 12:50:43 AM 38.9897 -89.1058 84° East 239 275 20,000 609 Climbing FAA TRACON SMA TRACON (SMA)
Wed 12:51:32 AM 39.0056 -89.0836 47° Northeast 244 281 20,600 771 Climbing Kansas City Center
Wed 12:52:32 AM 39.0239 -88.9894 76° East 251 289 21,400 639 Climbing Kansas City Center
Wed 12:53:34 AM 39.0425 -88.9150 72° East 252 290 21,900 492 Climbing Kansas City Center
Wed 12:54:34 AM 39.0583 -88.8264 77° East 254 292 22,400 508 Climbing Kansas City Center
Wed 12:55:32 AM 39.0775 -88.7358 75° East 258 297 22,900 496 Climbing Kansas City Center
Wed 12:56:35 AM 39.0889 -88.6444 81° East 259 298 23,400 439 Climbing Kansas City Center
Wed 12:57:35 AM 39.0889 -88.5483 90° East 260 299 23,800 400 Climbing Kansas City Center
Wed 12:58:35 AM 39.0958 -88.4517 85° East 265 305 24,200 397 Climbing Kansas City Center
Wed 12:59:36 AM 39.1364 -88.3708 57° Northeast 269 310 24,600 344 Climbing Kansas City Center
Wed 01:00:37 AM 39.1794 -88.2933 54° Northeast 266 306 24,900 197 Climbing Kansas City Center
Wed 01:01:38 AM 39.2236 -88.2144 54° Northeast 268 308 25,000 49 Climbing Kansas City Center
Wed 01:02:39 AM 39.1950 -88.1319 114° Southeast 282 325 25,000  Level Kansas City Center
Wed 01:03:38 AM 39.1289 -88.0931 155° Southeast 265 305 25,000  Level Kansas City Center
Wed 01:04:00 AM 39.1011 -88.0806 161° South 261 300 25,000  Level Indianapolis Center
Wed 01:05:01 AM 39.0300 -88.0569 166° South 262 302 25,000  Level Indianapolis Center
Wed 01:06:01 AM 38.9603 -88.0292 163° South 261 300 25,000  Level Indianapolis Center
Wed 01:07:01 AM 38.8919 -88.0008 162° South 258 297 25,000  Level Indianapolis Center
Wed 01:07:39 AM 38.8561 -87.9689 145° Southeast 271 312 25,000  Level Kansas City Center
Wed 01:08:42 AM 38.7819 -87.8994 144° Southeast 274 315 25,000  Level Kansas City Center
Wed 01:09:43 AM 38.7250 -87.8322 137° Southeast 279 321 25,000  Level Kansas City Center
Wed 01:10:02 AM 38.7131 -87.8178 137° Southeast 276 318 25,000  Level Indianapolis Center
Wed 01:11:03 AM 38.6569 -87.7511 137° Southeast 276 318 25,000  Level Indianapolis Center
Wed 01:12:03 AM 38.5953 -87.6900 142° Southeast 277 319 25,000  Level Indianapolis Center
Wed 01:13:03 AM 38.5319 -87.6361 146° Southeast 274 315 25,000  Level Indianapolis Center
Wed 01:14:04 AM 38.4689 -87.5825 146° Southeast 272 313 25,000  Level Indianapolis Center
Wed 01:15:04 AM 38.4106 -87.5228 141° Southeast 270 311 25,000  Level Indianapolis Center
Wed 01:16:04 AM 38.3511 -87.4611 141° Southeast 273 314 25,000  Level Indianapolis Center
Wed 01:17:05 AM 38.3192 -87.3475 110° East 292 336 25,000  Level Indianapolis Center
Wed 01:18:05 AM 38.3119 -87.2433 95° East 294 338 25,000  Level Indianapolis Center
Wed 01:19:05 AM 38.3203 -87.1481 84° East 291 335 25,000  Level Indianapolis Center
Wed 01:20:06 AM 38.3406 -87.0464 76° East 293 337 25,000  Level Indianapolis Center
Wed 01:21:06 AM 38.3589 -86.9506 76° East 291 335 25,000  Level Indianapolis Center
Wed 01:22:06 AM 38.3978 -86.8608 61° Northeast 290 334 25,000  Level Indianapolis Center
Wed 01:23:07 AM 38.4406 -86.7744 58° Northeast 288 331 25,000  Level Indianapolis Center
Wed 01:24:07 AM 38.4828 -86.6853 59° Northeast 292 336 25,000  Level Indianapolis Center
Wed 01:25:07 AM 38.5233 -86.5972 59° Northeast 288 331 25,000  Level Indianapolis Center
Wed 01:26:08 AM 38.5642 -86.5094 59° Northeast 286 329 25,000 -50 Level Indianapolis Center
Wed 01:27:08 AM 38.6044 -86.4236 59° Northeast 283 326 24,900  Descending Indianapolis Center
Wed 01:28:08 AM 38.6450 -86.3372 59° Northeast 282 325 25,000 50 Climbing Indianapolis Center
Wed 01:29:09 AM 38.6853 -86.2497 59° Northeast 284 327 25,000  Level Indianapolis Center
Wed 01:30:09 AM 38.7267 -86.1617 59° Northeast 287 330 25,000  Level Indianapolis Center
Wed 01:31:09 AM 38.7669 -86.0711 60° Northeast 292 336 25,000  Level Indianapolis Center
Wed 01:32:10 AM 38.8083 -85.9794 60° Northeast 295 339 25,000  Level Indianapolis Center
Wed 01:33:10 AM 38.8508 -85.8897 59° Northeast 295 339 25,000  Level Indianapolis Center
Wed 01:34:10 AM 38.8928 -85.7981 60° Northeast 296 341 25,000  Level Indianapolis Center
Wed 01:35:11 AM 38.9328 -85.7072 60° Northeast 293 337 25,000  Level Indianapolis Center
Wed 01:36:11 AM 38.9731 -85.6169 60° Northeast 290 334 25,000  Level Indianapolis Center
Wed 01:37:11 AM 39.0156 -85.5281 58° Northeast 291 335 25,000  Level Indianapolis Center
Wed 01:38:11 AM 39.0553 -85.4383 60° Northeast 290 334 25,000  Level Indianapolis Center
Wed 01:39:12 AM 39.0956 -85.3486 60° Northeast 289 333 25,000  Level Indianapolis Center
Wed 01:40:12 AM 39.1358 -85.2589 60° Northeast 287 330 25,000  Level Indianapolis Center
Wed 01:41:12 AM 39.1783 -85.1619 60° Northeast 287 330 25,000  Level Indianapolis Center
Wed 01:42:13 AM 39.2181 -85.0722 60° Northeast 285 328 25,000  Level Indianapolis Center
Wed 01:43:13 AM 39.2592 -84.9828 59° Northeast 288 331 25,000  Level Indianapolis Center
Wed 01:44:13 AM 39.2986 -84.8922 61° Northeast 288 331 25,000 -300 Level Indianapolis Center
Wed 01:45:13 AM 39.3394 -84.8006 60° Northeast 291 335 24,400 -496 Descending Indianapolis Center
Wed 01:46:14 AM 39.3750 -84.7164 61° Northeast 313 360 24,000 -843 Descending Indianapolis Center
Wed 01:47:14 AM 39.4194 -84.6175 60° Northeast 315 362 22,700 -1,400 Descending Indianapolis Center
Wed 01:48:14 AM 39.4653 -84.5156 60° Northeast 324 373 21,200 -1,537 Descending Indianapolis Center
Wed 01:49:15 AM 39.5089 -84.4122 61° Northeast 324 373 19,600 -1,438 Descending Indianapolis Center
Wed 01:50:15 AM 39.5522 -84.3153 60° Northeast 312 359 18,300 -1,250 Descending Indianapolis Center
Wed 01:51:15 AM 39.5944 -84.2181 61° Northeast 308 354 17,100 -1,150 Descending Indianapolis Center
Wed 01:52:15 AM 39.6367 -84.1197 61° Northeast 310 357 16,000 -1,091 Descending Indianapolis Center
Wed 01:53:16 AM 39.6783 -84.0208 61° Northeast 309 356 14,900 -1,041 Descending Indianapolis Center
Wed 01:54:16 AM 39.7189 -83.9275 61° Northeast 299 344 13,900 -1,000 Descending Indianapolis Center
Wed 01:55:16 AM 39.7583 -83.8361 61° Northeast 288 331 12,900 -1,059 Descending Indianapolis Center
Wed 01:55:58 AM 39.7889 -83.7653 61° Northeast 288 331 12,100 -984 Descending Indianapolis Center
Wed 01:56:17 AM 39.7972 -83.7442 63° Northeast 288 331 11,900 -1,091 Descending Indianapolis Center
Wed 01:57:04 AM 39.8319 -83.6619 61° Northeast 288 331 10,900 -1,111 Descending Indianapolis Center
Wed 01:58:05 AM 39.8719 -83.5772 58° Northeast 275 316 9,900 -1,033 Descending Indianapolis Center
Wed 01:59:06 AM 39.9153 -83.4983 54° Northeast 263 303 8,800 -1,140 Descending Indianapolis Center
Wed 02:00:06 AM 39.9539 -83.4297 54° Northeast 226 260 7,600 -1,289 Descending Indianapolis Center
Wed 02:01:07 AM 39.9881 -83.3603 57° Northeast 213 245 6,200 -1,388 Descending Indianapolis Center
Wed 02:02:07 AM 40.0211 -83.3072 51° Northeast 167 192 4,800 -1,488 Descending Indianapolis Center
Wed 02:03:08 AM 40.0469 -83.2694 48° Northeast 129 148 3,200 -934 Descending Indianapolis Center
Wed 02:04:09 AM 40.0656 -83.2417 49° Northeast 114 131 2,900 -298 Descending Indianapolis Center
Wed 02:05:09 AM 40.0708 -83.1958 81° East 135 155 2,600 -496 Descending Indianapolis Center
Wed 02:06:10 AM 40.0742 -83.1500 85° East 131 151 1,900 -694 Descending Indianapolis Center
Wed 02:07:10 AM 40.0753 -83.1011 88° East 135 155 1,200 -700 Descending Indianapolis Center
Wed 02:09:00 AM 40.0667 -83.0667 57° Northeast  Level FlightAware Approximate

Login

Don't have an account? Register now (free) for customized features, flight alerts, and more!